Apostle Islands National Lak, Wisconsin
Current Conditions -  °F | °C
As of 6:53 PM on Sunday 23 Nov 2014 (Local Time) from KASX Reporting Station
Moderate Fog Moderate Fog  
Wind Chill: 38°   Ceiling: 300
Heat Index: 38°   Visibility: 0.25mi
Dew Point: 37°   Wind: 3mph
Humidity: 97%   Direction: 20°NNE
Pressure: 29.36"   Gusts: NA
Location:  46.8614°N, 90.9101°W
Report Text: KASX 240053Z AUTO 02003KT 1/4SM FG VV003 03/03 A2936 RMK AO2 SLP949 T00330028
Loading
Personal Weather Stations






























Interactive Weather Map New forecast layout! Learn more

10-Day Weather Forecast

Advertisements
Track Severe Weather on mobile